createdAt,value
2019-01-10T00:02:17.773Z,101019.11
2019-01-10T00:04:49.662Z,101026.44
2019-01-10T00:07:21.524Z,101030.33
2019-01-10T00:09:53.421Z,101039.41
2019-01-10T00:12:25.308Z,101044.19
2019-01-10T00:14:57.179Z,101044.16
2019-01-10T00:17:29.075Z,101047.20
2019-01-10T00:20:00.974Z,101048.50
2019-01-10T00:22:32.827Z,101039.41
2019-01-10T00:25:07.727Z,101040.70
2019-01-10T00:27:42.205Z,101045.90
2019-01-10T00:30:17.331Z,101041.56
2019-01-10T00:32:49.793Z,101048.91
2019-01-10T00:35:21.655Z,101050.22
2019-01-10T00:37:53.560Z,101053.67
2019-01-10T00:40:25.735Z,101057.11
2019-01-10T00:42:57.591Z,101061.01
2019-01-10T00:45:29.502Z,101062.73
2019-01-10T00:48:01.377Z,101066.20
2019-01-10T00:50:33.238Z,101065.35
2019-01-10T00:53:05.159Z,101063.17
2019-01-10T00:55:37.029Z,101061.91
2019-01-10T00:58:08.895Z,101066.66
2019-01-10T01:00:40.896Z,101061.92
2019-01-10T01:03:12.730Z,101062.34
2019-01-10T01:05:44.576Z,101059.74
2019-01-10T01:08:16.540Z,101066.23
2019-01-10T01:10:48.427Z,101066.25
2019-01-10T01:13:20.401Z,101067.13
2019-01-10T01:15:52.310Z,101074.07
2019-01-10T01:18:24.198Z,101075.81
2019-01-10T01:20:56.479Z,101084.48
2019-01-10T01:23:28.418Z,101089.22
2019-01-10T01:26:00.348Z,101093.98
2019-01-10T01:28:32.265Z,101094.86
2019-01-10T01:31:04.132Z,101098.77
2019-01-10T01:33:36.014Z,101095.28
2019-01-10T01:36:08.914Z,101093.14
2019-01-10T01:38:40.831Z,101092.28
2019-01-10T01:41:12.730Z,101096.19
2019-01-10T01:43:44.608Z,101090.97
2019-01-10T01:46:16.500Z,101096.20
2019-01-10T01:48:48.413Z,101107.47
2019-01-10T01:51:20.289Z,101110.48
2019-01-10T01:53:52.218Z,101117.40
2019-01-10T01:56:24.136Z,101120.02
2019-01-10T01:58:56.016Z,101121.72
2019-01-10T02:01:27.885Z,101117.83
2019-01-10T02:03:59.784Z,101119.55
2019-01-10T02:06:31.676Z,101123.90
2019-01-10T02:09:03.919Z,101131.71
2019-01-10T02:11:35.885Z,101132.15
2019-01-10T02:14:07.889Z,101129.13
2019-01-10T02:16:40.687Z,101123.92
2019-01-10T02:19:12.630Z,101132.59
2019-01-10T02:21:44.465Z,101136.91
2019-01-10T02:24:16.330Z,101135.20
2019-01-10T02:26:48.187Z,101136.92
2019-01-10T02:29:20.006Z,101134.77
2019-01-10T02:31:51.941Z,101140.84
2019-01-10T02:34:23.952Z,101143.84
2019-01-10T02:36:55.825Z,101147.73
2019-01-10T02:39:27.689Z,101149.06
2019-01-10T02:41:59.523Z,101150.36
2019-01-10T02:44:31.379Z,101148.64
2019-01-10T02:47:03.252Z,101145.16
2019-01-10T02:49:35.095Z,101154.28
2019-01-10T02:52:06.943Z,101153.41
2019-01-10T02:54:38.806Z,101159.48
2019-01-10T02:57:10.655Z,101160.34
2019-01-10T02:59:42.542Z,101155.58
2019-01-10T03:02:16.031Z,101165.56
2019-01-10T03:04:49.615Z,101162.50
2019-01-10T03:07:21.448Z,101158.59
2019-01-10T03:09:53.296Z,101157.30
2019-01-10T03:12:25.166Z,101148.62
2019-01-10T03:14:57.003Z,101158.59
2019-01-10T03:17:28.953Z,101157.72
2019-01-10T03:20:00.755Z,101155.55
2019-01-10T03:22:32.601Z,101152.95
2019-01-10T03:25:04.844Z,101152.09
2019-01-10T03:27:36.718Z,101146.89
2019-01-10T03:30:10.710Z,101152.08
2019-01-10T03:32:42.593Z,101153.41
2019-01-10T03:35:14.854Z,101149.49
2019-01-10T03:37:46.685Z,101147.77
2019-01-10T03:40:21.571Z,101141.70
2019-01-10T03:42:53.416Z,101152.11
2019-01-10T03:45:25.291Z,101153.41
2019-01-10T03:47:57.164Z,101150.79
2019-01-10T03:50:29.030Z,101149.49
2019-01-10T03:53:00.816Z,101155.14
2019-01-10T03:55:32.696Z,101160.34
2019-01-10T03:58:04.558Z,101161.19
2019-01-10T04:00:36.411Z,101157.29
2019-01-10T04:03:08.282Z,101154.69
2019-01-10T04:05:40.160Z,101157.29
2019-01-10T04:08:12.039Z,101158.59
2019-01-10T04:10:43.907Z,101159.04
2019-01-10T04:13:15.740Z,101162.08
2019-01-10T04:15:47.580Z,101157.73
2019-01-10T04:18:19.429Z,101162.06
2019-01-10T04:20:51.303Z,101160.36
2019-01-10T04:23:23.148Z,101160.77
2019-01-10T04:25:54.943Z,101168.13
2019-01-10T04:28:26.753Z,101164.64
2019-01-10T04:30:58.613Z,101165.94
2019-01-10T04:33:30.430Z,101171.58
2019-01-10T04:36:02.246Z,101167.23
2019-01-10T04:38:34.104Z,101171.14
2019-01-10T04:41:05.922Z,101178.05
2019-01-10T04:43:37.754Z,101175.48
2019-01-10T04:46:09.589Z,101178.92
2019-01-10T04:48:41.438Z,101176.33
2019-01-10T04:51:13.279Z,101172.45
2019-01-10T04:53:45.140Z,101172.02
2019-01-10T04:56:16.943Z,101172.87
2019-01-10T04:58:48.849Z,101176.34
2019-01-10T05:01:20.722Z,101182.39
2019-01-10T05:03:52.652Z,101177.62
2019-01-10T05:06:24.487Z,101180.68
2019-01-10T05:08:56.361Z,101179.35
2019-01-10T05:11:28.192Z,101180.23
2019-01-10T05:13:59.988Z,101183.70
2019-01-10T05:16:31.832Z,101181.95
2019-01-10T05:19:03.757Z,101183.27
2019-01-10T05:21:35.625Z,101176.75
2019-01-10T05:24:07.529Z,101175.92
2019-01-10T05:26:39.446Z,101175.48
2019-01-10T05:29:11.336Z,101180.23
2019-01-10T05:31:43.128Z,101175.89
2019-01-10T05:34:15.028Z,101177.61
2019-01-10T05:36:46.868Z,101188.88
2019-01-10T05:39:18.731Z,101184.55
2019-01-10T05:41:50.585Z,101183.26
2019-01-10T05:44:26.751Z,101181.93
2019-01-10T05:46:56.884Z,101186.73
2019-01-10T05:49:28.710Z,101180.21
2019-01-10T05:52:00.559Z,101182.81
2019-01-10T05:54:33.267Z,101174.98
2019-01-10T05:57:05.096Z,101176.34
2019-01-10T05:59:37.852Z,101177.61
2019-01-10T06:02:09.748Z,101183.69
2019-01-10T06:04:41.587Z,101184.11
2019-01-10T06:07:13.577Z,101194.05
2019-01-10T06:09:45.538Z,101199.67
2019-01-10T06:12:17.418Z,101202.69
2019-01-10T06:14:49.283Z,101203.99
2019-01-10T06:17:21.195Z,101206.59
2019-01-10T06:19:53.059Z,101207.52
2019-01-10T06:22:24.933Z,101211.81
2019-01-10T06:24:56.793Z,101206.59
2019-01-10T06:27:28.591Z,101210.48
2019-01-10T06:30:00.438Z,101231.72
2019-01-10T06:32:32.291Z,101234.75
2019-01-10T06:35:04.239Z,101233.90
2019-01-10T06:37:36.084Z,101239.97
2019-01-10T06:40:09.666Z,101236.05
2019-01-10T06:42:41.506Z,101236.92
2019-01-10T06:45:14.487Z,101235.59
2019-01-10T06:47:46.452Z,101240.79
2019-01-10T06:50:19.049Z,101250.73
2019-01-10T06:52:51.081Z,101248.98
2019-01-10T06:55:22.920Z,101249.44
2019-01-10T06:57:54.763Z,101250.28
2019-01-10T07:00:27.414Z,101253.30
2019-01-10T07:02:59.233Z,101249.86
2019-01-10T07:05:31.121Z,101258.95
2019-01-10T07:08:02.961Z,101259.83
2019-01-10T07:10:34.783Z,101258.95
2019-01-10T07:13:06.687Z,101264.56
2019-01-10T07:15:39.343Z,101259.34
2019-01-10T07:18:11.203Z,101266.75
2019-01-10T07:20:43.337Z,101261.09
2019-01-10T07:23:15.242Z,101268.44
2019-01-10T07:25:47.070Z,101266.68
2019-01-10T07:28:25.661Z,101263.23
2019-01-10T07:31:02.850Z,101266.26
2019-01-10T07:33:34.686Z,101269.28
2019-01-10T07:36:06.760Z,101271.45
2019-01-10T07:38:38.590Z,101274.96
2019-01-10T07:41:10.443Z,101280.16
2019-01-10T07:43:42.293Z,101277.98
2019-01-10T07:46:14.121Z,101283.59
2019-01-10T07:48:50.096Z,101278.44
2019-01-10T07:51:23.432Z,101278.86
2019-01-10T07:53:55.237Z,101281.91
2019-01-10T07:56:27.229Z,101284.08
2019-01-10T07:58:59.113Z,101278.89
2019-01-10T08:01:30.974Z,101279.73
2019-01-10T08:04:02.859Z,101278.44
2019-01-10T08:06:34.734Z,101292.30
2019-01-10T08:09:09.891Z,101295.35
2019-01-10T08:11:41.746Z,101288.86
2019-01-10T08:14:13.598Z,101300.12
2019-01-10T08:16:45.448Z,101302.27
2019-01-10T08:19:17.308Z,101304.44
2019-01-10T08:21:49.152Z,101313.14
2019-01-10T08:24:21.007Z,101318.77
2019-01-10T08:26:55.102Z,101316.20
2019-01-10T08:29:27.003Z,101319.25
2019-01-10T08:31:58.890Z,101317.53
2019-01-10T08:34:30.716Z,101318.86
2019-01-10T08:37:02.580Z,101335.33
2019-01-10T08:39:34.461Z,101329.25
2019-01-10T08:42:06.501Z,101331.88
2019-01-10T08:44:38.380Z,101339.26
2019-01-10T08:47:10.171Z,101339.72
2019-01-10T08:49:42.081Z,101334.06
2019-01-10T08:52:14.115Z,101333.67
2019-01-10T08:54:45.989Z,101333.70
2019-01-10T08:57:17.847Z,101330.24
2019-01-10T08:59:49.781Z,101323.34
2019-01-10T09:02:21.653Z,101317.75
2019-01-10T09:04:53.507Z,101317.77
2019-01-10T09:07:25.400Z,101320.36
2019-01-10T09:09:57.204Z,101327.79
2019-01-10T09:12:30.345Z,101329.53
2019-01-10T09:15:02.254Z,101334.33
2019-01-10T09:17:34.061Z,101331.31
2019-01-10T09:20:07.201Z,101327.91
2019-01-10T09:22:39.036Z,101337.89
2019-01-10T09:25:10.972Z,101339.23
2019-01-10T09:27:42.814Z,101344.88
2019-01-10T09:30:20.055Z,101339.70
2019-01-10T09:32:54.553Z,101345.80
2019-01-10T09:35:26.407Z,101346.25
2019-01-10T09:37:58.233Z,101348.02
2019-01-10T09:40:30.140Z,101351.92
2019-01-10T09:43:01.998Z,101354.53
2019-01-10T09:45:42.789Z,101360.16
2019-01-10T09:48:07.349Z,101369.30
2019-01-10T09:50:39.170Z,101362.34
2019-01-10T09:53:11.016Z,101360.16
2019-01-10T09:55:42.849Z,101365.83
2019-01-10T09:58:14.678Z,101370.15
2019-01-10T10:00:46.517Z,101363.63
2019-01-10T10:03:18.562Z,101372.32
2019-01-10T10:05:50.484Z,101369.73
2019-01-10T10:08:22.323Z,101373.20
2019-01-10T10:10:54.175Z,101371.90
2019-01-10T10:13:26.003Z,101379.70
2019-01-10T10:15:57.899Z,101381.45
2019-01-10T10:18:29.818Z,101382.31
2019-01-10T10:21:01.699Z,101372.32
2019-01-10T10:23:33.552Z,101371.41
2019-01-10T10:26:05.389Z,101376.13
2019-01-10T10:28:37.279Z,101370.43
2019-01-10T10:31:09.161Z,101374.24
2019-01-10T10:33:41.050Z,101378.98
2019-01-10T10:36:12.892Z,101376.75
2019-01-10T10:38:44.846Z,101370.62
2019-01-10T10:41:16.735Z,101374.09
2019-01-10T10:43:48.589Z,101360.95
2019-01-10T10:46:20.467Z,101370.13
2019-01-10T10:48:52.318Z,101373.61
2019-01-10T10:51:24.271Z,101375.42
2019-01-10T10:53:56.481Z,101378.98
2019-01-10T10:56:28.454Z,101376.84
2019-01-10T10:59:02.019Z,101383.01
2019-01-10T11:01:33.968Z,101387.81
2019-01-10T11:04:06.546Z,101386.97
2019-01-10T11:06:38.381Z,101382.20
2019-01-10T11:09:11.117Z,101381.80
2019-01-10T11:11:43.010Z,101379.64
2019-01-10T11:14:14.819Z,101371.41
2019-01-10T11:16:46.719Z,101372.71
2019-01-10T11:19:18.575Z,101378.81
2019-01-10T11:21:52.115Z,101370.56
2019-01-10T11:24:24.020Z,101377.10
2019-01-10T11:26:55.963Z,101373.18
2019-01-10T11:29:27.814Z,101379.26
2019-01-10T11:31:59.806Z,101382.77
2019-01-10T11:34:31.644Z,101373.19
2019-01-10T11:37:03.541Z,101369.30
2019-01-10T11:39:35.398Z,101370.59
2019-01-10T11:42:07.259Z,101374.48
2019-01-10T11:44:39.137Z,101367.98
2019-01-10T11:47:11.032Z,101366.23
2019-01-10T11:49:42.953Z,101360.61
2019-01-10T11:52:14.897Z,101360.18
2019-01-10T11:54:46.743Z,101356.25
2019-01-10T11:57:18.625Z,101355.39
2019-01-10T11:59:50.570Z,101355.83
2019-01-10T12:02:22.552Z,101355.38
2019-01-10T12:04:54.504Z,101353.22
2019-01-10T12:07:26.404Z,101352.77
2019-01-10T12:09:58.362Z,101347.12
2019-01-10T12:12:30.255Z,101348.44
2019-01-10T12:15:02.111Z,101342.78
2019-01-10T12:17:34.001Z,101347.56
2019-01-10T12:20:07.413Z,101351.02
2019-01-10T12:22:39.321Z,101341.05
2019-01-10T12:25:13.342Z,101332.77
2019-01-10T12:27:45.550Z,101337.56
2019-01-10T12:30:20.881Z,101332.77
2019-01-10T12:32:52.820Z,101334.50
2019-01-10T12:35:25.734Z,101332.77
2019-01-10T12:37:57.597Z,101325.39
2019-01-10T12:40:29.539Z,101322.33
2019-01-10T12:43:01.433Z,101324.95
2019-01-10T12:45:33.210Z,101328.41
2019-01-10T12:48:05.037Z,101324.93
2019-01-10T12:50:36.884Z,101325.80
2019-01-10T12:53:09.980Z,101315.80
2019-01-10T12:55:42.293Z,101317.95
2019-01-10T12:58:14.103Z,101321.85
2019-01-10T13:00:45.964Z,101321.80
2019-01-10T13:03:17.941Z,101324.86
2019-01-10T13:05:49.838Z,101320.49
2019-01-10T13:08:21.665Z,101329.59
2019-01-10T13:10:54.341Z,101324.36
2019-01-10T13:13:26.276Z,101326.55
2019-01-10T13:15:58.183Z,101324.79
2019-01-10T13:18:30.033Z,101323.45
2019-01-10T13:21:01.926Z,101324.72
2019-01-10T13:23:33.748Z,101323.41
2019-01-10T13:26:05.872Z,101324.25
2019-01-10T13:28:37.695Z,101321.17
2019-01-10T13:31:09.552Z,101328.09
2019-01-10T13:33:41.410Z,101324.53
2019-01-10T13:36:13.290Z,101326.23
2019-01-10T13:38:45.139Z,101323.61
2019-01-10T13:41:17.002Z,101323.20
2019-01-10T13:43:48.825Z,101324.52
2019-01-10T13:46:21.169Z,101325.45
2019-01-10T13:48:53.002Z,101330.20
2019-01-10T13:51:24.847Z,101330.61
2019-01-10T13:53:56.788Z,101331.33
2019-01-10T13:56:28.599Z,101331.07
2019-01-10T13:59:00.489Z,101333.09
2019-01-10T14:01:32.330Z,101329.58
2019-01-10T14:04:04.184Z,101330.81
2019-01-10T14:06:36.051Z,101335.66
2019-01-10T14:09:10.771Z,101333.19
2019-01-10T14:11:42.626Z,101333.75
2019-01-10T14:14:14.459Z,101327.81
2019-01-10T14:16:46.843Z,101336.66
2019-01-10T14:19:18.693Z,101340.62
2019-01-10T14:21:50.622Z,101335.87
2019-01-10T14:24:22.497Z,101334.61
2019-01-10T14:26:54.338Z,101338.59
2019-01-10T14:29:26.345Z,101332.53
2019-01-10T14:31:58.210Z,101333.42
2019-01-10T14:34:30.808Z,101332.17
2019-01-10T14:37:03.593Z,101335.24
2019-01-10T14:39:35.404Z,101333.95
2019-01-10T14:42:07.320Z,101329.61
2019-01-10T14:44:39.141Z,101329.61
2019-01-10T14:47:10.955Z,101325.70
2019-01-10T14:49:42.833Z,101323.97
2019-01-10T14:52:14.647Z,101324.87
2019-01-10T14:54:46.448Z,101320.12
2019-01-10T14:57:18.312Z,101321.02
2019-01-10T14:59:50.150Z,101322.75
2019-01-10T15:02:21.982Z,101318.42
2019-01-10T15:04:53.859Z,101320.18
2019-01-10T15:07:25.710Z,101323.22
2019-01-10T15:09:57.559Z,101318.44
2019-01-10T15:12:29.403Z,101331.91
2019-01-10T15:15:01.297Z,101329.74
2019-01-10T15:17:33.144Z,101324.53
2019-01-10T15:20:07.385Z,101327.59
2019-01-10T15:22:39.223Z,101327.16
2019-01-10T15:25:11.051Z,101329.32
2019-01-10T15:27:42.989Z,101334.55
2019-01-10T15:30:21.267Z,101330.20
2019-01-10T15:32:53.191Z,101327.58
2019-01-10T15:35:25.484Z,101328.45
2019-01-10T15:37:57.281Z,101325.84
2019-01-10T15:40:32.177Z,101335.40
2019-01-10T15:43:06.134Z,101330.20
2019-01-10T15:45:38.013Z,101330.21
2019-01-10T15:48:10.076Z,101335.41
2019-01-10T15:50:41.912Z,101335.84
2019-01-10T15:53:13.845Z,101345.81
2019-01-10T15:55:45.727Z,101338.86
2019-01-10T15:58:17.600Z,101338.00
2019-01-10T16:00:49.443Z,101337.14
2019-01-10T16:03:21.456Z,101339.73
2019-01-10T16:05:53.366Z,101337.56
2019-01-10T16:08:25.210Z,101339.30
2019-01-10T16:10:57.129Z,101349.27
2019-01-10T16:13:29.014Z,101344.94
2019-01-10T16:16:00.899Z,101344.51
2019-01-10T16:18:33.718Z,101344.49
2019-01-10T16:21:05.642Z,101336.25
2019-01-10T16:23:38.480Z,101338.40
2019-01-10T16:26:10.286Z,101337.09
2019-01-10T16:28:42.164Z,101336.25
2019-01-10T16:31:13.983Z,101338.00
2019-01-10T16:33:45.896Z,101324.08
2019-01-10T16:36:17.721Z,101330.16
2019-01-10T16:38:49.544Z,101330.61
2019-01-10T16:41:21.394Z,101337.55
2019-01-10T16:43:53.245Z,101339.27
2019-01-10T16:46:25.083Z,101338.41
2019-01-10T16:48:56.962Z,101340.59
2019-01-10T16:51:28.809Z,101339.28
2019-01-10T16:54:02.290Z,101332.34
2019-01-10T16:56:34.152Z,101333.64
2019-01-10T16:59:06.648Z,101331.05
2019-01-10T17:01:38.519Z,101332.36
2019-01-10T17:04:10.651Z,101339.71
2019-01-10T17:06:42.499Z,101338.42
2019-01-10T17:09:17.603Z,101335.80
2019-01-10T17:11:49.998Z,101337.55
2019-01-10T17:14:22.350Z,101336.69
2019-01-10T17:16:54.740Z,101336.69
2019-01-10T17:19:26.713Z,101337.11
2019-01-10T17:21:58.767Z,101330.17
2019-01-10T17:24:30.789Z,101333.20
2019-01-10T17:27:02.677Z,101337.11
2019-01-10T17:29:34.849Z,101336.23
2019-01-10T17:32:07.055Z,101341.44
2019-01-10T17:34:39.042Z,101334.51
2019-01-10T17:37:10.907Z,101341.44
2019-01-10T17:39:42.790Z,101344.91
2019-01-10T17:42:14.871Z,101347.09
2019-01-10T17:44:46.925Z,101346.20
2019-01-10T17:47:19.072Z,101351.02
2019-01-10T17:49:51.113Z,101343.20
2019-01-10T17:52:25.146Z,101344.08
2019-01-10T17:54:56.474Z,101350.56
2019-01-10T17:57:28.347Z,101343.62
2019-01-10T18:00:00.247Z,101347.10
2019-01-10T18:02:32.091Z,101341.89
2019-01-10T18:05:03.986Z,101350.16
2019-01-10T18:07:35.828Z,101347.09
2019-01-10T18:10:10.949Z,101347.97
2019-01-10T18:12:42.836Z,101349.72
2019-01-10T18:15:17.123Z,101348.84
2019-01-10T18:17:50.478Z,101347.97
2019-01-10T18:20:36.218Z,101344.06
2019-01-10T18:23:08.343Z,101343.64
2019-01-10T18:25:40.221Z,101353.20
2019-01-10T18:28:12.132Z,101357.97
2019-01-10T18:30:43.986Z,101354.05
2019-01-10T18:33:15.886Z,101350.17
2019-01-10T18:35:47.685Z,101348.86
2019-01-10T18:38:19.527Z,101345.37
2019-01-10T18:40:51.432Z,101344.06
2019-01-10T18:43:23.271Z,101343.22
2019-01-10T18:45:55.192Z,101352.77
2019-01-10T18:48:27.044Z,101342.79
2019-01-10T18:50:58.924Z,101345.81
2019-01-10T18:53:30.862Z,101342.77
2019-01-10T18:56:02.782Z,101344.52
2019-01-10T18:58:34.625Z,101349.72
2019-01-10T19:01:06.540Z,101344.08
2019-01-10T19:03:38.401Z,101337.12
2019-01-10T19:06:10.275Z,101342.79
2019-01-10T19:08:42.132Z,101341.48
2019-01-10T19:11:13.981Z,101341.04
2019-01-10T19:13:45.804Z,101342.77
2019-01-10T19:16:17.790Z,101348.87
2019-01-10T19:18:50.264Z,101349.30
2019-01-10T19:21:22.223Z,101350.16
2019-01-10T19:23:54.115Z,101349.75
2019-01-10T19:26:26.446Z,101344.09
2019-01-10T19:28:58.430Z,101346.69
2019-01-10T19:31:30.328Z,101342.36
2019-01-10T19:34:02.168Z,101343.67
2019-01-10T19:36:34.171Z,101341.93
2019-01-10T19:39:09.418Z,101347.14
2019-01-10T19:41:41.432Z,101343.23
2019-01-10T19:44:13.407Z,101344.08
2019-01-10T19:46:45.265Z,101337.16
2019-01-10T19:49:17.893Z,101336.72
2019-01-10T19:51:53.599Z,101342.37
2019-01-10T19:54:25.524Z,101344.51
2019-01-10T19:56:57.444Z,101345.81
2019-01-10T19:59:32.466Z,101347.55
2019-01-10T20:02:04.465Z,101350.59
2019-01-10T20:04:36.435Z,101346.23
2019-01-10T20:07:11.103Z,101344.95
2019-01-10T20:09:45.372Z,101352.31
2019-01-10T20:12:17.383Z,101347.54
2019-01-10T20:14:49.345Z,101346.25
2019-01-10T20:17:23.684Z,101349.72
2019-01-10T20:19:55.551Z,101350.16
2019-01-10T20:22:27.487Z,101348.84
2019-01-10T20:25:00.331Z,101354.06
2019-01-10T20:27:35.294Z,101349.28
2019-01-10T20:30:08.263Z,101351.03
2019-01-10T20:32:41.246Z,101353.19
2019-01-10T20:35:13.489Z,101349.28
2019-01-10T20:37:45.687Z,101350.17
2019-01-10T20:40:17.835Z,101359.28
2019-01-10T20:42:51.485Z,101353.62
2019-01-10T20:45:23.450Z,101355.80
2019-01-10T20:47:56.984Z,101351.01
2019-01-10T20:50:28.937Z,101351.44
2019-01-10T20:53:00.830Z,101353.62
2019-01-10T20:55:36.595Z,101354.49
2019-01-10T20:58:08.626Z,101346.68
2019-01-10T21:00:40.596Z,101347.54
2019-01-10T21:03:13.699Z,101344.52
2019-01-10T21:05:45.595Z,101349.30
2019-01-10T21:08:17.424Z,101343.65
2019-01-10T21:10:49.324Z,101347.12
2019-01-10T21:13:21.270Z,101350.16
2019-01-10T21:15:56.929Z,101347.97
2019-01-10T21:18:29.039Z,101354.06
2019-01-10T21:21:00.936Z,101351.03
2019-01-10T21:23:32.855Z,101351.46
2019-01-10T21:26:05.207Z,101347.98
2019-01-10T21:28:37.113Z,101348.39
2019-01-10T21:31:09.065Z,101347.55
2019-01-10T21:33:40.976Z,101347.98
2019-01-10T21:36:12.804Z,101341.02
2019-01-10T21:38:44.685Z,101340.17
2019-01-10T21:41:16.531Z,101343.18
2019-01-10T21:43:48.386Z,101347.52
2019-01-10T21:46:20.451Z,101345.80
2019-01-10T21:48:52.332Z,101343.19
2019-01-10T21:51:25.855Z,101342.31
2019-01-10T21:53:57.760Z,101345.77
2019-01-10T21:56:30.468Z,101352.73
2019-01-10T21:59:02.508Z,101350.55
2019-01-10T22:01:36.118Z,101353.13
2019-01-10T22:04:08.019Z,101348.81
2019-01-10T22:06:41.034Z,101350.09
2019-01-10T22:09:12.879Z,101349.67
2019-01-10T22:11:45.302Z,101347.48
2019-01-10T22:14:17.252Z,101342.73
2019-01-10T22:16:49.118Z,101342.73
2019-01-10T22:19:21.050Z,101341.87
2019-01-10T22:21:52.910Z,101344.02
2019-01-10T22:24:27.836Z,101333.17
2019-01-10T22:27:01.469Z,101340.98
2019-01-10T22:29:33.348Z,101339.25
2019-01-10T22:32:05.296Z,101337.50
2019-01-10T22:34:37.338Z,101335.75
2019-01-10T22:37:09.191Z,101334.46
2019-01-10T22:39:41.100Z,101328.80
2019-01-10T22:42:13.004Z,101332.29
2019-01-10T22:44:44.888Z,101329.27
2019-01-10T22:47:16.723Z,101330.99
2019-01-10T22:49:48.616Z,101325.33
2019-01-10T22:52:20.474Z,101323.16
2019-01-10T22:54:53.208Z,101318.37
2019-01-10T22:57:25.115Z,101322.30
2019-01-10T22:59:56.950Z,101322.73
2019-01-10T23:02:29.139Z,101322.28
2019-01-10T23:05:01.005Z,101324.89
2019-01-10T23:07:33.343Z,101323.61
2019-01-10T23:10:08.452Z,101317.98
2019-01-10T23:12:40.334Z,101314.92
2019-01-10T23:15:34.548Z,101311.03
2019-01-10T23:18:09.179Z,101311.47
2019-01-10T23:20:41.027Z,101307.98
2019-01-10T23:23:13.354Z,101312.33
2019-01-10T23:25:48.287Z,101304.53
2019-01-10T23:28:20.161Z,101302.77
2019-01-10T23:30:58.152Z,101301.89
2019-01-10T23:33:30.028Z,101302.30
2019-01-10T23:36:04.679Z,101309.66
2019-01-10T23:38:36.645Z,101304.87
2019-01-10T23:41:08.526Z,101304.44
2019-01-10T23:43:40.378Z,101296.61
2019-01-10T23:46:12.253Z,101296.14
2019-01-10T23:48:44.232Z,101300.05
2019-01-10T23:51:17.764Z,101294.01
2019-01-10T23:53:49.626Z,101296.19
2019-01-10T23:56:21.419Z,101287.97
2019-01-10T23:58:53.267Z,101290.15
